createdAt,value
2023-04-18T00:00:38.875Z,82.7
2023-04-18T00:01:40.085Z,82.8
2023-04-18T00:02:41.652Z,82.8
2023-04-18T00:03:43.949Z,82.8
2023-04-18T00:04:45.280Z,82.9
2023-04-18T00:05:46.497Z,82.9
2023-04-18T00:06:47.638Z,83
2023-04-18T00:07:48.806Z,83
2023-04-18T00:08:49.986Z,83
2023-04-18T00:09:51.137Z,83.1
2023-04-18T00:10:52.111Z,83.2
2023-04-18T00:11:52.888Z,83.2
2023-04-18T00:12:54.052Z,83.3
2023-04-18T00:13:55.019Z,83.4
2023-04-18T00:14:55.838Z,83.4
2023-04-18T00:15:56.807Z,83.5
2023-04-18T00:16:58.199Z,83.6
2023-04-18T00:17:59.378Z,83.7
2023-04-18T00:19:00.524Z,83.7
2023-04-18T00:20:01.686Z,83.9
2023-04-18T00:21:02.876Z,84
2023-04-18T00:22:04.022Z,84
2023-04-18T00:23:05.185Z,84.2
2023-04-18T00:24:06.352Z,84.2
2023-04-18T00:25:07.522Z,84.3
2023-04-18T00:26:08.531Z,84.4
2023-04-18T00:27:09.697Z,84.5
2023-04-18T00:28:10.862Z,84.5
2023-04-18T00:29:12.025Z,84.6
2023-04-18T00:30:13.206Z,84.7
2023-04-18T00:31:14.696Z,84.7
2023-04-18T00:32:15.846Z,84.8
2023-04-18T00:33:17.009Z,84.8
2023-04-18T00:34:18.172Z,84.9
2023-04-18T00:35:19.340Z,85
2023-04-18T00:36:20.332Z,85
2023-04-18T00:37:21.416Z,85.1
2023-04-18T00:38:22.585Z,85.2
2023-04-18T00:39:23.749Z,85.2
2023-04-18T00:40:24.917Z,85.3
2023-04-18T00:41:26.082Z,85.3
2023-04-18T00:42:27.246Z,85.4
2023-04-18T00:43:28.421Z,85.5
2023-04-18T00:44:29.578Z,85.6
2023-04-18T00:45:30.775Z,85.7
2023-04-18T00:46:32.049Z,85.8
2023-04-18T00:47:33.593Z,85.9
2023-04-18T00:48:34.611Z,85.9
2023-04-18T00:49:35.586Z,86
2023-04-18T00:50:36.750Z,86
2023-04-18T00:51:38.068Z,86.1
2023-04-18T00:52:39.372Z,86.1
2023-04-18T00:53:40.344Z,86.2
2023-04-18T00:54:41.515Z,86.3
2023-04-18T00:55:42.692Z,86.3
2023-04-18T00:56:43.646Z,86.4
2023-04-18T00:57:44.809Z,86.5
2023-04-18T00:58:45.974Z,86.5
2023-04-18T00:59:47.143Z,86.7
2023-04-18T01:00:48.306Z,86.8
2023-04-18T01:01:49.679Z,86.8
2023-04-18T01:02:51.168Z,86.9
2023-04-18T01:03:52.847Z,86.9
2023-04-18T01:04:54.068Z,86.9
2023-04-18T01:05:54.846Z,87
2023-04-18T01:06:56.038Z,87.1
2023-04-18T01:07:57.179Z,87.2
2023-04-18T01:08:58.348Z,87.2
2023-04-18T01:09:59.322Z,87.3
2023-04-18T01:11:00.494Z,87.3
2023-04-18T01:12:01.711Z,87.4
2023-04-18T01:13:03.030Z,87.4
2023-04-18T01:14:04.040Z,87.4
2023-04-18T01:15:05.206Z,87.4
2023-04-18T01:16:06.508Z,87.4
2023-04-18T01:17:07.475Z,87.5
2023-04-18T01:18:08.641Z,87.5
2023-04-18T01:19:09.457Z,87.5
2023-04-18T01:20:10.624Z,87.6
2023-04-18T01:21:11.789Z,87.6
2023-04-18T01:22:12.979Z,87.6
2023-04-18T01:23:13.922Z,87.7
2023-04-18T01:24:16.093Z,87.7
2023-04-18T01:25:17.559Z,87.8
2023-04-18T01:26:18.373Z,87.9
2023-04-18T01:27:19.546Z,88
2023-04-18T01:28:20.706Z,88.1
2023-04-18T01:29:21.720Z,88.1
2023-04-18T01:30:22.888Z,88.1
2023-04-18T01:31:23.910Z,88.1
2023-04-18T01:32:25.169Z,88.2
2023-04-18T01:33:26.316Z,88.2
2023-04-18T01:34:27.489Z,88.3
2023-04-18T01:35:28.651Z,88.4
2023-04-18T01:36:29.819Z,88.5
2023-04-18T01:37:30.853Z,88.5
2023-04-18T01:38:31.997Z,88.6
2023-04-18T01:39:32.969Z,88.7
2023-04-18T01:40:33.943Z,88.7
2023-04-18T01:41:35.103Z,88.7
2023-04-18T01:42:36.270Z,88.7
2023-04-18T01:43:37.437Z,88.8
2023-04-18T01:44:38.408Z,88.9
2023-04-18T01:45:39.570Z,89
2023-04-18T01:46:41.052Z,89.1
2023-04-18T01:47:42.361Z,89.1
2023-04-18T01:48:43.631Z,89.2
2023-04-18T01:49:44.797Z,89.2
2023-04-18T01:50:45.960Z,89.2
2023-04-18T01:51:47.130Z,89.2
2023-04-18T01:52:48.328Z,89.2
2023-04-18T01:53:49.539Z,89.3
2023-04-18T01:54:50.502Z,89.3
2023-04-18T01:55:51.673Z,89.3
2023-04-18T01:56:52.856Z,89.3
2023-04-18T01:57:54.006Z,89.4
2023-04-18T01:58:55.167Z,89.4
2023-04-18T01:59:56.332Z,89.4
2023-04-18T02:00:57.510Z,89.4
2023-04-18T02:01:58.987Z,89.3
2023-04-18T02:03:00.829Z,89.3
2023-04-18T02:04:02.638Z,89.4
2023-04-18T02:05:03.787Z,89.4
2023-04-18T02:06:04.768Z,89.4
2023-04-18T02:07:05.928Z,89.4
2023-04-18T02:08:07.122Z,89.5
2023-04-18T02:09:08.262Z,89.6
2023-04-18T02:10:09.429Z,89.7
2023-04-18T02:11:10.591Z,89.8
2023-04-18T02:12:11.761Z,89.9
2023-04-18T02:13:12.758Z,90
2023-04-18T02:14:14.731Z,90.1
2023-04-18T02:15:16.175Z,90.1
2023-04-18T02:16:17.286Z,90.1
2023-04-18T02:17:18.423Z,90.1
2023-04-18T02:18:19.592Z,90.1
2023-04-18T02:19:20.773Z,90.1
2023-04-18T02:20:21.839Z,90.2
2023-04-18T02:21:23.001Z,90.1
2023-04-18T02:22:24.170Z,90.2
2023-04-18T02:23:25.362Z,90.2
2023-04-18T02:24:26.572Z,90.3
2023-04-18T02:25:27.540Z,90.4
2023-04-18T02:26:28.518Z,90.4
2023-04-18T02:27:29.676Z,90.5
2023-04-18T02:28:30.844Z,90.6
2023-04-18T02:29:32.011Z,90.6
2023-04-18T02:30:33.173Z,90.7
2023-04-18T02:31:34.452Z,90.7
2023-04-18T02:32:35.836Z,90.7
2023-04-18T02:33:36.765Z,90.7
2023-04-18T02:34:37.934Z,90.7
2023-04-18T02:35:39.101Z,90.7
2023-04-18T02:36:40.277Z,90.8
2023-04-18T02:37:41.242Z,90.8
2023-04-18T02:38:42.496Z,90.9
2023-04-18T02:39:43.578Z,91
2023-04-18T02:40:44.741Z,91
2023-04-18T02:41:45.750Z,91
2023-04-18T02:42:46.920Z,91.1
2023-04-18T02:43:47.691Z,91.1
2023-04-18T02:44:48.853Z,91.1
2023-04-18T02:45:50.083Z,91.1
2023-04-18T02:46:51.230Z,91.2
2023-04-18T02:47:57.308Z,91.2
2023-04-18T02:48:58.455Z,91.2
2023-04-18T02:49:59.625Z,91.2
2023-04-18T02:51:00.591Z,91.2
2023-04-18T02:52:01.606Z,91.2
2023-04-18T02:53:02.620Z,91.2
2023-04-18T02:54:03.620Z,91.2
2023-04-18T02:55:04.879Z,91.3
2023-04-18T02:56:06.046Z,91.3
2023-04-18T02:57:07.062Z,91.3
2023-04-18T02:58:08.080Z,91.3
2023-04-18T02:59:09.244Z,91.3
2023-04-18T03:00:10.420Z,91.3
2023-04-18T03:01:11.706Z,91.4
2023-04-18T03:02:13.198Z,91.4
2023-04-18T03:03:14.337Z,91.4
2023-04-18T03:04:16.312Z,91.5
2023-04-18T03:05:17.657Z,91.5
2023-04-18T03:06:18.920Z,91.5
2023-04-18T03:07:20.086Z,91.5
2023-04-18T03:08:21.253Z,91.5
2023-04-18T03:09:22.566Z,91.4
2023-04-18T03:10:23.823Z,91.4
2023-04-18T03:11:25.005Z,91.4
2023-04-18T03:12:25.967Z,91.4
2023-04-18T03:13:27.137Z,91.4
2023-04-18T03:14:28.313Z,91.3
2023-04-18T03:15:29.468Z,91.3
2023-04-18T03:16:30.531Z,91.4
2023-04-18T03:17:31.754Z,91.4
2023-04-18T03:18:32.894Z,91.4
2023-04-18T03:19:34.065Z,91.4
2023-04-18T03:20:35.237Z,91.4
2023-04-18T03:21:36.393Z,91.5
2023-04-18T03:22:37.363Z,91.5
2023-04-18T03:23:38.526Z,91.4
2023-04-18T03:24:39.720Z,91.4
2023-04-18T03:25:40.754Z,91.4
2023-04-18T03:26:41.911Z,91.4
2023-04-18T03:27:43.065Z,91.4
2023-04-18T03:28:44.231Z,91.3
2023-04-18T03:29:45.202Z,91.3
2023-04-18T03:30:46.842Z,91.3
2023-04-18T03:31:48.376Z,91.3
2023-04-18T03:32:49.917Z,91.3
2023-04-18T03:33:50.945Z,91.3
2023-04-18T03:34:52.110Z,91.3
2023-04-18T03:35:53.281Z,91.3
2023-04-18T03:36:54.443Z,91.3
2023-04-18T03:37:55.610Z,91.2
2023-04-18T03:38:56.777Z,91.2
2023-04-18T03:39:57.988Z,91.2
2023-04-18T03:40:59.126Z,91.2
2023-04-18T03:42:00.303Z,91.1
2023-04-18T03:43:01.457Z,91.1
2023-04-18T03:44:02.630Z,91.1
2023-04-18T03:45:03.794Z,91.1
2023-04-18T03:46:04.976Z,91.1
2023-04-18T03:47:06.141Z,91.1
2023-04-18T03:48:07.311Z,91.1
2023-04-18T03:49:08.485Z,91.1
2023-04-18T03:50:09.637Z,91.1
2023-04-18T03:51:10.812Z,91.1
2023-04-18T03:52:11.983Z,91
2023-04-18T03:53:13.135Z,91
2023-04-18T03:54:15.077Z,91
2023-04-18T03:55:16.391Z,91
2023-04-18T03:56:17.549Z,91.1
2023-04-18T03:57:18.717Z,91.1
2023-04-18T03:58:19.877Z,91.1
2023-04-18T03:59:21.046Z,91.1
2023-04-18T04:00:22.212Z,91.1
2023-04-18T04:01:23.374Z,91
2023-04-18T04:02:25.060Z,91
2023-04-18T04:03:26.746Z,91
2023-04-18T04:04:28.382Z,91
2023-04-18T04:05:29.651Z,91
2023-04-18T04:06:30.426Z,91
2023-04-18T04:07:31.397Z,91
2023-04-18T04:08:32.566Z,91
2023-04-18T04:09:33.732Z,90.9
2023-04-18T04:10:34.821Z,90.9
2023-04-18T04:11:36.249Z,90.9
2023-04-18T04:12:37.412Z,90.9
2023-04-18T04:13:38.583Z,90.9
2023-04-18T04:14:39.750Z,90.9
2023-04-18T04:15:40.907Z,90.9
2023-04-18T04:16:42.278Z,90.9
2023-04-18T04:17:43.449Z,90.8
2023-04-18T04:18:44.621Z,90.8
2023-04-18T04:19:45.589Z,90.8
2023-04-18T04:20:46.756Z,90.8
2023-04-18T04:21:47.923Z,90.8
2023-04-18T04:22:49.087Z,90.7
2023-04-18T04:23:50.253Z,90.6
2023-04-18T04:24:51.423Z,90.6
2023-04-18T04:25:52.415Z,90.5
2023-04-18T04:26:53.558Z,90.5
2023-04-18T04:27:54.520Z,90.5
2023-04-18T04:28:55.691Z,90.5
2023-04-18T04:29:56.994Z,90.5
2023-04-18T04:30:58.179Z,90.5
2023-04-18T04:31:59.322Z,90.5
2023-04-18T04:33:00.441Z,90.5
2023-04-18T04:34:01.578Z,90.5
2023-04-18T04:35:02.553Z,90.5
2023-04-18T04:36:03.591Z,90.5
2023-04-18T04:37:04.754Z,90.4
2023-04-18T04:38:05.919Z,90.4
2023-04-18T04:39:07.096Z,90.4
2023-04-18T04:40:08.066Z,90.4
2023-04-18T04:41:09.265Z,90.4
2023-04-18T04:42:10.458Z,90.4
2023-04-18T04:43:11.654Z,90.3
2023-04-18T04:44:13.409Z,90.3
2023-04-18T04:45:14.702Z,90.4
2023-04-18T04:46:15.891Z,90.4
2023-04-18T04:47:17.145Z,90.4
2023-04-18T04:48:18.316Z,90.3
2023-04-18T04:49:19.325Z,90.4
2023-04-18T04:50:20.497Z,90.3
2023-04-18T04:51:21.663Z,90.3
2023-04-18T04:52:22.829Z,90.3
2023-04-18T04:53:24.001Z,90.3
2023-04-18T04:54:25.177Z,90.3
2023-04-18T04:55:26.375Z,90.3
2023-04-18T04:56:27.552Z,90.2
2023-04-18T04:57:28.687Z,90.1
2023-04-18T04:58:29.861Z,90.1
2023-04-18T04:59:31.023Z,90.1
2023-04-18T05:00:32.188Z,90.1
2023-04-18T05:01:33.475Z,90.1
2023-04-18T05:02:35.174Z,90.1
2023-04-18T05:03:37.131Z,90
2023-04-18T05:04:39.248Z,89.9
2023-04-18T05:05:40.522Z,89.9
2023-04-18T05:06:41.684Z,89.8
2023-04-18T05:07:42.900Z,89.8
2023-04-18T05:08:44.030Z,89.8
2023-04-18T05:09:45.008Z,89.8
2023-04-18T05:10:46.161Z,89.8
2023-04-18T05:11:47.353Z,89.8
2023-04-18T05:12:48.495Z,89.8
2023-04-18T05:13:49.660Z,89.8
2023-04-18T05:14:50.827Z,89.8
2023-04-18T05:15:52.004Z,89.8
2023-04-18T05:16:53.218Z,89.7
2023-04-18T05:17:54.752Z,89.7
2023-04-18T05:18:55.975Z,89.7
2023-04-18T05:19:57.143Z,89.7
2023-04-18T05:20:58.303Z,89.7
2023-04-18T05:21:59.472Z,89.6
2023-04-18T05:23:00.638Z,89.6
2023-04-18T05:24:01.877Z,89.6
2023-04-18T05:25:03.041Z,89.5
2023-04-18T05:26:04.203Z,89.4
2023-04-18T05:27:05.402Z,89.4
2023-04-18T05:28:06.540Z,89.4
2023-04-18T05:29:07.707Z,89.4
2023-04-18T05:30:08.868Z,89.3
2023-04-18T05:31:10.244Z,89.3
2023-04-18T05:32:11.621Z,89.3
2023-04-18T05:33:12.893Z,89.2
2023-04-18T05:34:15.000Z,89.2
2023-04-18T05:35:16.369Z,89.2
2023-04-18T05:36:17.528Z,89.1
2023-04-18T05:37:18.701Z,89
2023-04-18T05:38:19.861Z,88.9
2023-04-18T05:39:21.031Z,88.9
2023-04-18T05:40:22.196Z,88.9
2023-04-18T05:41:23.361Z,88.8
2023-04-18T05:42:24.556Z,88.7
2023-04-18T05:43:25.832Z,88.7
2023-04-18T05:44:27.001Z,88.7
2023-04-18T05:45:28.163Z,88.7
2023-04-18T05:46:29.355Z,88.7
2023-04-18T05:47:30.544Z,88.7
2023-04-18T05:48:31.825Z,88.7
2023-04-18T05:49:32.989Z,88.7
2023-04-18T05:50:34.152Z,88.6
2023-04-18T05:51:35.317Z,88.6
2023-04-18T05:52:36.483Z,88.5
2023-04-18T05:53:37.645Z,88.4
2023-04-18T05:54:38.812Z,88.4
2023-04-18T05:55:39.981Z,88.4
2023-04-18T05:56:41.148Z,88.4
2023-04-18T05:57:42.344Z,88.3
2023-04-18T05:58:43.741Z,88.3
2023-04-18T05:59:45.005Z,88.3
2023-04-18T06:00:46.167Z,88.3
2023-04-18T06:01:47.353Z,88.2
2023-04-18T06:02:48.785Z,88.2
2023-04-18T06:03:51.118Z,88.1
2023-04-18T06:04:53.256Z,88.1
2023-04-18T06:05:54.876Z,88
2023-04-18T06:06:56.111Z,88
2023-04-18T06:07:57.281Z,88
2023-04-18T06:08:58.443Z,88.1
2023-04-18T06:09:59.625Z,88
2023-04-18T06:11:00.774Z,87.9
2023-04-18T06:12:01.944Z,87.9
2023-04-18T06:13:03.131Z,87.8
2023-04-18T06:14:04.285Z,87.7
2023-04-18T06:15:05.441Z,87.7
2023-04-18T06:16:06.653Z,87.6
2023-04-18T06:17:07.797Z,87.6
2023-04-18T06:18:09.175Z,87.6
2023-04-18T06:19:10.433Z,87.6
2023-04-18T06:20:11.709Z,87.6
2023-04-18T06:21:12.866Z,87.6
2023-04-18T06:22:14.026Z,87.4
2023-04-18T06:23:15.196Z,87.2
2023-04-18T06:24:17.228Z,87.1
2023-04-18T06:25:18.461Z,87
2023-04-18T06:26:19.626Z,86.9
2023-04-18T06:27:32.639Z,86.8
2023-04-18T06:28:33.840Z,86.7
2023-04-18T06:29:38.398Z,86.6
2023-04-18T06:30:39.554Z,86.6
2023-04-18T06:31:40.886Z,86.5
2023-04-18T06:32:42.120Z,86.5
2023-04-18T06:33:43.273Z,86.6
2023-04-18T06:34:44.434Z,86.5
2023-04-18T06:35:45.597Z,86.4
2023-04-18T06:36:46.768Z,86.4
2023-04-18T06:37:47.932Z,86.3
2023-04-18T06:38:49.103Z,86.3
2023-04-18T06:39:50.263Z,86.2
2023-04-18T06:40:51.430Z,86.1
2023-04-18T06:41:52.597Z,85.9
2023-04-18T06:42:53.763Z,85.8
2023-04-18T06:44:04.946Z,85.7
2023-04-18T06:45:06.342Z,85.5
2023-04-18T06:46:07.617Z,85.4
2023-04-18T06:47:08.894Z,85.3
2023-04-18T06:48:10.297Z,85.3
2023-04-18T06:49:11.565Z,85.3
2023-04-18T06:50:12.741Z,85.3
2023-04-18T06:51:13.901Z,85.2
2023-04-18T06:52:15.062Z,85.2
2023-04-18T06:53:16.293Z,85.2
2023-04-18T06:54:17.469Z,85.1
2023-04-18T06:55:18.632Z,85.1
2023-04-18T06:56:19.803Z,85
2023-04-18T06:57:20.965Z,84.9
2023-04-18T06:58:22.130Z,84.8
2023-04-18T06:59:23.403Z,84.8
2023-04-18T07:00:24.883Z,84.7
2023-04-18T07:01:26.122Z,84.6
2023-04-18T07:02:27.687Z,84.5
2023-04-18T07:03:29.419Z,84.5
2023-04-18T07:04:31.019Z,84.5
2023-04-18T07:05:32.264Z,84.3
2023-04-18T07:06:33.428Z,84.1
2023-04-18T07:07:34.592Z,84.1
2023-04-18T07:08:35.758Z,84.1
2023-04-18T07:09:36.922Z,84.1
2023-04-18T07:10:38.087Z,84
2023-04-18T07:11:39.258Z,84
2023-04-18T07:12:40.423Z,84
2023-04-18T07:13:41.587Z,84
2023-04-18T07:14:42.806Z,84
2023-04-18T07:15:44.094Z,83.9
2023-04-18T07:16:45.358Z,83.8
2023-04-18T07:17:46.551Z,83.9
2023-04-18T07:18:47.815Z,83.8
2023-04-18T07:19:48.975Z,83.6
2023-04-18T07:20:50.143Z,83.5
2023-04-18T07:21:51.307Z,83.4
2023-04-18T07:22:52.469Z,83.4
2023-04-18T07:23:53.634Z,83.4
2023-04-18T07:24:54.811Z,83.4
2023-04-18T07:25:55.972Z,83.3
2023-04-18T07:26:57.141Z,83.3
2023-04-18T07:27:58.304Z,83.3
2023-04-18T07:28:59.469Z,83.2
2023-04-18T07:30:00.693Z,83
2023-04-18T07:31:02.363Z,82.9
2023-04-18T07:32:03.541Z,82.8
2023-04-18T07:33:04.848Z,82.7
2023-04-18T07:34:06.017Z,82.7
2023-04-18T07:35:07.182Z,82.6
2023-04-18T07:36:08.364Z,82.6
2023-04-18T07:37:09.514Z,82.6
2023-04-18T07:38:10.683Z,82.6
2023-04-18T07:39:11.841Z,82.7
2023-04-18T07:40:13.023Z,82.7
2023-04-18T07:41:14.189Z,82.7
2023-04-18T07:42:15.368Z,82.7
2023-04-18T07:43:16.507Z,82.7
2023-04-18T07:44:17.673Z,82.6
2023-04-18T07:45:18.864Z,82.5
2023-04-18T07:46:20.513Z,82.4
2023-04-18T07:47:23.241Z,82.4
2023-04-18T07:48:24.403Z,82.3
2023-04-18T07:49:25.572Z,82.2
2023-04-18T07:50:27.096Z,82.1
2023-04-18T07:51:28.288Z,82
2023-04-18T07:52:29.453Z,82
2023-04-18T07:53:30.667Z,81.9
2023-04-18T07:54:31.794Z,81.8
2023-04-18T07:55:32.958Z,81.7
2023-04-18T07:56:34.134Z,81.6
2023-04-18T07:57:35.425Z,81.6
2023-04-18T07:58:36.738Z,81.5
2023-04-18T07:59:37.899Z,81.4
2023-04-18T08:00:39.104Z,81.3
2023-04-18T08:01:40.452Z,81.2
2023-04-18T08:02:42.346Z,81.2
2023-04-18T08:03:44.063Z,81.1
2023-04-18T08:04:46.012Z,81.1
2023-04-18T08:05:47.331Z,80.9
2023-04-18T08:06:48.491Z,80.8
2023-04-18T08:07:49.672Z,80.6
2023-04-18T08:08:50.831Z,80.4
2023-04-18T08:09:51.995Z,80.3
2023-04-18T08:10:53.158Z,80.3
2023-04-18T08:11:54.573Z,80
2023-04-18T08:12:55.743Z,79.9
2023-04-18T08:13:56.906Z,79.8
2023-04-18T08:14:58.073Z,79.6
2023-04-18T08:15:59.603Z,79.4
2023-04-18T08:17:01.157Z,79.1
2023-04-18T08:18:02.744Z,78.7
2023-04-18T08:19:03.907Z,78.6
2023-04-18T08:20:05.089Z,78.3
2023-04-18T08:21:06.112Z,78.2
2023-04-18T08:22:07.275Z,78
2023-04-18T08:23:13.691Z,77.8
2023-04-18T08:24:14.874Z,77.6
2023-04-18T08:25:16.030Z,77.4
2023-04-18T08:26:17.193Z,77.1
2023-04-18T08:27:18.366Z,76.9
2023-04-18T08:28:19.529Z,76.9
2023-04-18T08:29:20.693Z,76.7
2023-04-18T08:30:21.858Z,76.6
2023-04-18T08:31:23.379Z,76.5
2023-04-18T08:32:25.171Z,76.3
2023-04-18T08:33:26.308Z,76.1
2023-04-18T08:34:27.478Z,75.7
2023-04-18T08:35:28.643Z,75.5
2023-04-18T08:36:29.829Z,75.4
2023-04-18T08:37:30.977Z,75.2
2023-04-18T08:38:32.157Z,74.9
2023-04-18T08:39:33.329Z,74.7
2023-04-18T08:40:34.563Z,74.7
2023-04-18T08:41:35.731Z,74.6
2023-04-18T08:42:36.922Z,74.4
2023-04-18T08:43:38.064Z,74.3
2023-04-18T08:44:39.231Z,74.2
2023-04-18T08:45:40.422Z,74.1
2023-04-18T08:47:48.207Z,74
2023-04-18T08:48:49.481Z,74
2023-04-18T08:49:50.642Z,73.9
2023-04-18T08:50:51.812Z,73.8
2023-04-18T08:51:52.982Z,73.6
2023-04-18T08:52:54.148Z,73.5
2023-04-18T08:53:55.317Z,73.4
2023-04-18T08:54:56.477Z,73.2
2023-04-18T08:55:57.997Z,73.2
2023-04-18T08:56:59.166Z,73.2
2023-04-18T08:58:00.322Z,73.2
2023-04-18T08:59:01.492Z,73.1
2023-04-18T09:00:02.677Z,72.9
2023-04-18T09:01:04.178Z,72.9
2023-04-18T09:02:05.388Z,73
2023-04-18T09:03:07.701Z,72.9
2023-04-18T09:04:09.202Z,72.8
2023-04-18T09:05:10.352Z,72.8
2023-04-18T09:06:11.614Z,72.7
2023-04-18T09:07:12.778Z,72.6
2023-04-18T09:08:13.951Z,72.6
2023-04-18T09:09:18.313Z,72.6
2023-04-18T09:10:19.457Z,72.4
2023-04-18T09:11:20.608Z,72.2
2023-04-18T09:12:21.767Z,72
2023-04-18T09:13:25.372Z,71.9
2023-04-18T09:14:26.539Z,71.7
2023-04-18T09:15:27.887Z,71.5
2023-04-18T09:16:29.259Z,71.3
2023-04-18T09:17:30.550Z,71
2023-04-18T09:18:31.955Z,70.8
2023-04-18T09:19:33.106Z,70.6
2023-04-18T09:20:34.277Z,70.4
2023-04-18T09:21:35.442Z,70.2
2023-04-18T09:22:38.413Z,70.1
2023-04-18T09:23:41.023Z,69.9
2023-04-18T09:24:42.185Z,69.8
2023-04-18T09:25:46.085Z,69.7
2023-04-18T09:26:47.249Z,69.7
2023-04-18T09:27:48.426Z,69.5
2023-04-18T09:28:49.810Z,69.3
2023-04-18T09:29:51.408Z,69.2
2023-04-18T09:30:52.805Z,69.2
2023-04-18T09:31:53.894Z,69.1
2023-04-18T09:32:55.185Z,69.1
2023-04-18T09:33:56.574Z,69.1
2023-04-18T09:34:57.727Z,69
2023-04-18T09:35:58.886Z,68.9
2023-04-18T09:37:00.351Z,68.8
2023-04-18T09:38:01.501Z,68.7
2023-04-18T09:39:02.672Z,68.7
2023-04-18T09:40:03.839Z,68.4
2023-04-18T09:41:05.006Z,68.3
2023-04-18T09:42:06.168Z,68.2
2023-04-18T09:43:07.339Z,68.1
2023-04-18T09:44:08.984Z,67.8
2023-04-18T09:45:10.877Z,67.8
2023-04-18T09:46:12.116Z,67.7
2023-04-18T09:47:13.270Z,67.6
2023-04-18T09:48:14.451Z,67.5
2023-04-18T09:49:16.831Z,67.4
2023-04-18T09:50:18.300Z,67.2
2023-04-18T09:51:19.467Z,67.2
2023-04-18T09:52:20.647Z,67.2
2023-04-18T09:53:21.976Z,67.3
2023-04-18T09:54:23.153Z,67.3
2023-04-18T09:55:24.392Z,67.4
2023-04-18T09:56:25.601Z,67.4
2023-04-18T09:57:26.763Z,67.4
2023-04-18T09:58:28.000Z,67.3
2023-04-18T09:59:29.192Z,67.2
2023-04-18T10:00:30.376Z,67.2
2023-04-18T10:01:31.826Z,67.1
2023-04-18T10:02:33.340Z,67
2023-04-18T10:03:35.088Z,67.1
2023-04-18T10:04:37.475Z,67.3
2023-04-18T10:05:38.993Z,67.4
2023-04-18T10:06:40.331Z,67.3
2023-04-18T10:07:41.499Z,67.3
2023-04-18T10:08:42.472Z,67.3
2023-04-18T10:09:43.632Z,67.2
2023-04-18T10:10:44.809Z,67.2
2023-04-18T10:11:45.972Z,67
2023-04-18T10:12:47.137Z,66.8
2023-04-18T10:13:48.303Z,66.6
2023-04-18T10:14:49.468Z,66.5
2023-04-18T10:15:50.845Z,66.5
2023-04-18T10:16:52.077Z,66.4
2023-04-18T10:18:06.861Z,66.2
2023-04-18T10:19:08.028Z,66.3
2023-04-18T10:20:09.531Z,66.3
2023-04-18T10:21:10.671Z,66.2
2023-04-18T10:22:11.840Z,66.2
2023-04-18T10:23:13.005Z,65.7
2023-04-18T10:24:14.895Z,65.7
2023-04-18T10:25:16.361Z,65.5
2023-04-18T10:26:17.524Z,64.9
2023-04-18T10:27:18.868Z,64.6
2023-04-18T10:28:20.043Z,64.6
2023-04-18T10:29:21.208Z,64.6
2023-04-18T10:30:22.458Z,64.5
2023-04-18T10:31:24.276Z,64.1
2023-04-18T10:32:25.654Z,63.9
2023-04-18T10:33:33.958Z,63.9
2023-04-18T10:34:35.163Z,63.7
2023-04-18T10:35:36.467Z,63.4
2023-04-18T10:36:37.609Z,63.4
2023-04-18T10:37:38.774Z,63.4
2023-04-18T10:38:39.940Z,63.3
2023-04-18T10:39:41.112Z,63.3
2023-04-18T10:40:42.279Z,63.4
2023-04-18T10:41:43.447Z,63.3
2023-04-18T10:42:44.615Z,63.3
2023-04-18T10:43:45.779Z,63.1
2023-04-18T10:44:46.944Z,63.1
2023-04-18T10:45:48.111Z,63
2023-04-18T10:46:49.393Z,63
2023-04-18T10:47:50.680Z,63.1
2023-04-18T10:48:51.886Z,63.1
2023-04-18T10:49:53.035Z,63.1
2023-04-18T10:50:54.407Z,62.8
2023-04-18T10:51:55.572Z,62.3
2023-04-18T10:52:56.737Z,62.3
2023-04-18T10:53:57.910Z,62.2
2023-04-18T10:54:59.894Z,62.2
2023-04-18T10:56:01.067Z,62.1
2023-04-18T10:57:02.222Z,62.2
2023-04-18T10:58:03.394Z,62.1
2023-04-18T10:59:04.558Z,62.1
2023-04-18T11:00:05.729Z,62
2023-04-18T11:01:07.046Z,62
2023-04-18T11:02:08.451Z,62
2023-04-18T11:03:10.175Z,62
2023-04-18T11:04:12.004Z,61.8
2023-04-18T11:05:13.378Z,61.8
2023-04-18T11:06:15.393Z,61.7
2023-04-18T11:07:16.877Z,61.7
2023-04-18T11:08:18.043Z,61.7
2023-04-18T11:09:19.214Z,61.6
2023-04-18T11:10:20.576Z,61.5
2023-04-18T11:11:21.820Z,61.5
2023-04-18T11:12:25.148Z,61.6
2023-04-18T11:13:26.965Z,61.7
2023-04-18T11:14:28.117Z,61.9
2023-04-18T11:15:31.708Z,62.1
2023-04-18T11:16:33.178Z,62.1
2023-04-18T11:17:34.506Z,62.1
2023-04-18T11:18:35.703Z,62.1
2023-04-18T11:19:36.868Z,62.1
2023-04-18T11:20:38.039Z,62
2023-04-18T11:21:39.365Z,62.2
2023-04-18T11:22:40.534Z,62.3
2023-04-18T11:23:41.706Z,62.3
2023-04-18T11:24:42.886Z,62.3
2023-04-18T11:25:44.040Z,62.2
2023-04-18T11:26:45.209Z,62.3
2023-04-18T11:27:46.376Z,62.3
2023-04-18T11:28:47.545Z,62.4
2023-04-18T11:29:48.703Z,62.3
2023-04-18T11:30:49.881Z,62.2
2023-04-18T11:31:51.185Z,62.3
2023-04-18T11:32:52.527Z,62.5
2023-04-18T11:33:53.740Z,62.4
2023-04-18T11:34:54.905Z,62.3
2023-04-18T11:35:56.073Z,62.2
2023-04-18T11:36:57.448Z,62.3
2023-04-18T11:37:58.780Z,62.3
2023-04-18T11:38:59.943Z,62.3
2023-04-18T11:40:01.116Z,62.3
2023-04-18T11:41:02.297Z,62.2
2023-04-18T11:42:03.466Z,62.2
2023-04-18T11:43:04.638Z,62.1
2023-04-18T11:44:05.803Z,62.1
2023-04-18T11:45:06.967Z,62.1
2023-04-18T11:46:08.408Z,62.1
2023-04-18T11:47:09.688Z,62.1
2023-04-18T11:48:10.866Z,62.1
2023-04-18T11:49:12.032Z,62.1
2023-04-18T11:50:13.219Z,62
2023-04-18T11:51:14.382Z,61.8
2023-04-18T11:52:15.662Z,61.7
2023-04-18T11:53:16.899Z,61.5
2023-04-18T11:54:18.062Z,61.3
2023-04-18T11:55:19.366Z,61.1
2023-04-18T11:56:20.532Z,61
2023-04-18T11:57:21.719Z,61.1
2023-04-18T11:58:22.887Z,61.2
2023-04-18T11:59:24.051Z,61.2
2023-04-18T12:00:25.222Z,61.2
2023-04-18T12:01:26.466Z,61.3
2023-04-18T12:02:28.341Z,61.5
2023-04-18T12:03:30.561Z,61.7
2023-04-18T12:04:32.515Z,61.9
2023-04-18T12:05:34.672Z,62
2023-04-18T12:06:36.132Z,62
2023-04-18T12:07:37.687Z,62
2023-04-18T12:08:38.935Z,62
2023-04-18T12:09:40.112Z,62.1
2023-04-18T12:10:41.276Z,62.1
2023-04-18T12:11:42.398Z,62
2023-04-18T12:12:43.537Z,62.1
2023-04-18T12:13:44.720Z,62.1
2023-04-18T12:14:45.882Z,62
2023-04-18T12:15:47.168Z,61.8
2023-04-18T12:16:48.414Z,61.8
2023-04-18T12:17:49.363Z,61.8
2023-04-18T12:18:50.517Z,61.6
2023-04-18T12:19:51.802Z,61.5
2023-04-18T12:20:53.124Z,61.3
2023-04-18T12:21:54.284Z,61.2
2023-04-18T12:22:55.171Z,61
2023-04-18T12:23:56.189Z,60.9
2023-04-18T12:24:57.149Z,60.9
2023-04-18T12:25:58.321Z,60.8
2023-04-18T12:26:59.510Z,60.6
2023-04-18T12:28:00.463Z,60.6
2023-04-18T12:29:01.639Z,60.4
2023-04-18T12:30:02.606Z,60.3
2023-04-18T12:31:04.010Z,60.2
2023-04-18T12:32:05.178Z,59.8
2023-04-18T12:33:06.749Z,59.9
2023-04-18T12:34:08.084Z,60.1
2023-04-18T12:35:09.055Z,60.2
2023-04-18T12:36:10.090Z,60.3
2023-04-18T12:37:11.147Z,60.5
2023-04-18T12:38:12.666Z,60.4
2023-04-18T12:39:13.813Z,60.4
2023-04-18T12:40:14.965Z,60.4
2023-04-18T12:41:16.161Z,60.5
2023-04-18T12:42:17.315Z,60.6
2023-04-18T12:43:18.481Z,60.8
2023-04-18T12:44:19.304Z,60.9
2023-04-18T12:45:20.468Z,61
2023-04-18T12:46:21.415Z,61.1
2023-04-18T12:47:22.589Z,61.2
2023-04-18T12:48:23.574Z,61.3
2023-04-18T12:49:24.728Z,61.3
2023-04-18T12:50:25.899Z,61.4
2023-04-18T12:51:27.055Z,61.5
2023-04-18T12:52:28.226Z,61.6
2023-04-18T12:53:29.785Z,61.8
2023-04-18T12:54:30.715Z,61.8
2023-04-18T12:55:31.910Z,61.8
2023-04-18T12:56:32.858Z,61.7
2023-04-18T12:57:34.020Z,61.8
2023-04-18T12:58:34.818Z,61.8
2023-04-18T12:59:35.962Z,61.9
2023-04-18T13:00:37.298Z,62
2023-04-18T13:01:38.265Z,62
2023-04-18T13:02:40.025Z,62
2023-04-18T13:03:42.023Z,62
2023-04-18T13:04:44.014Z,62
2023-04-18T13:05:45.257Z,62
2023-04-18T13:06:46.420Z,62.1
2023-04-18T13:07:47.391Z,62.1
2023-04-18T13:08:48.575Z,62
2023-04-18T13:09:49.723Z,62.1
2023-04-18T13:10:50.891Z,62
2023-04-18T13:11:52.058Z,61.8
2023-04-18T13:12:53.026Z,61.6
2023-04-18T13:13:54.220Z,61.6
2023-04-18T13:14:55.238Z,61.6
2023-04-18T13:15:56.214Z,61.6
2023-04-18T13:16:57.525Z,61.6
2023-04-18T13:17:58.915Z,61.6
2023-04-18T13:19:00.130Z,61.6
2023-04-18T13:20:01.264Z,61.6
2023-04-18T13:21:02.436Z,61.5
2023-04-18T13:22:03.595Z,61.4
2023-04-18T13:23:04.784Z,61.3
2023-04-18T13:24:06.131Z,61.3
2023-04-18T13:25:07.264Z,61.3
2023-04-18T13:26:08.502Z,61.5
2023-04-18T13:27:09.443Z,61.6
2023-04-18T13:28:10.631Z,61.6
2023-04-18T13:29:11.518Z,61.6
2023-04-18T13:30:12.972Z,61.5
2023-04-18T13:31:17.432Z,61.5
2023-04-18T13:32:18.807Z,61.5
2023-04-18T13:33:19.865Z,61.4
2023-04-18T13:34:20.883Z,61.4
2023-04-18T13:35:26.712Z,61.3
2023-04-18T13:36:28.817Z,61.3
2023-04-18T13:37:30.435Z,61.4
2023-04-18T13:38:31.596Z,61.2
2023-04-18T13:39:32.797Z,61.1
2023-04-18T13:40:33.929Z,61.1
2023-04-18T13:41:34.902Z,61.1
2023-04-18T13:42:35.931Z,60.9